Salem, WV (26426)

02:41:EDT den 29. september 2016 (GMT -0400)
North View | | Change Station

H.o.h 1045 ft 39.30 °N, 80.35 °W | Updated 10 seconds ago

Overcast
Overskyet
61.3 °F
Feels Like 61.3 °F
N
0.0
Vind Variabel Vind from VSV
Gusts 0.0 mph

I dag
High -- | Low -- °F
--% Chance of Precip.
I går
High -- | Low -- °F
Precip. -- tommer
Lufttrykk 29.99 tommer
Sikt 10.0 eng. mil
Skyet Overskyet 2600 ft
Duggpunkt 55 °F
Fuktighet 81%
Regn 0.00 tommer
Snødybde Not available.
7:16 AM 7:07 PM
Minkende sigd, 3% visible
METAR KCKB 290553Z AUTO 24004KT 10SM OVC026 16/11 A3003 RMK AO2 SLP156 60000 T01560106 10194 20156 51030
Lufttrykk 29.99 tommer
Sikt 10.0 eng. mil
Skyet Overskyet 2600 ft
Duggpunkt 55 °F
Fuktighet 81%
Regn 0.00 tommer
Snødybde Not available.
7:16 AM 7:07 PM
Minkende sigd, 3% visible
METAR KCKB 290553Z AUTO 24004KT 10SM OVC026 16/11 A3003 RMK AO2 SLP156 60000 T01560106 10194 20156 51030

10-Day Weather Forecast

Almanac

Astronomi

Sep. 29, 2016 Oppgang Nedgang
Virkelig tid
Tussmørke
Nautisk skumring
Astronomisk skumring
Månen
Lengde av synlig lys
Dagens lengde
Tomorrow will be .
, % of the Moon is Illuminated

Dagens maks og min

State Highs State Lows

Community

WunderPhotos

Upload Photos

1,942,446 photos uploaded!

WunderBlog® & News

Nearby

Luftkvalitet

  Luftkvalitet AQ Indeks Forurensing
Not available.

Snødybde

Stasjon Depth Høyde over havet

Earthquake Activity

By Distance Mag. Time & Date
Minimum magnitude displayed is 2.5.

Coastal Water Temperatures

Sted Temperatur

Stations

Nearby Weather Stations

Stasjonens lokasjon Temp. Nedkjølingseffekt Duggpunkt Fuktighet Vind Precip. H.o.h Oppdatert Type
                   

Watches & Warnings

There are currently no watches in effect.